Shintaiei Maru — JD3904 — position and weather

sailwx.info

Track history (hours):
 
Tides and Currents Weather Stations Pressure Air Temp Water Temp Dewpoint Dewpoint Depression Visibility Wind Speed Wind Dir Waves Ship Positions

Shintaiei Maru

Last reported at 2018-Jun-19 04:59 UTC. Time now 2018-Jun-21 11:58 UTC.
Position N 35°13' E 139°46'.

Length 75 m; draft 4.5 m.

Type: Cargo ship. MMSI: 431006906.

Date/timePositionNaut miles runAvg speedWind from/ knotsBaromVisibWave heightAir tempDewpointWater temp
2018-Jun-19 04:59N 35°13' E 139°46'612.6
2018-Jun-19 04:30N 35°19' E 139°43'611.6
2018-Jun-19 04:00N 35°25' E 139°43'612.7
2018-Jun-19 03:30N 35°28' E 139°49'9 0.3
2018-Jun-17 21:36N 35°35' E 139°57'0 0.1
2018-Jun-17 21:30N 35°35' E 139°57'3 0.7
2018-Jun-17 16:52N 35°32' E 139°55'411.8
2018-Jun-17 16:30N 35°29' E 139°52'611.4
2018-Jun-17 16:00N 35°25' E 139°47'611.3
2018-Jun-17 15:30N 35°19' E 139°44'510.4
2018-Jun-17 15:00N 35°15' E 139°47'811.5
2018-Jun-17 14:19N 35°07' E 139°45'245 9.9
2018-Jun-16 13:36N 33°51' E 135°03'111.1
2018-Jun-16 13:30N 33°51' E 135°03'610.3
2018-Jun-16 12:57N 33°57' E 134°60'510.3
2018-Jun-16 12:29N 34°01' E 134°60'510.7
2018-Jun-16 12:00N 34°07' E 134°59'611.2
2018-Jun-16 11:29N 34°12' E 134°59'5 9.9
2018-Jun-16 11:00N 34°17' E 134°58'5 9.9
2018-Jun-16 10:30N 34°22' E 134°59'510.5
2018-Jun-16 10:00N 34°27' E 135°01'510.4
2018-Jun-16 09:30N 34°32' E 135°02'5 9.5
2018-Jun-16 08:59N 34°37' E 135°01'612.3
2018-Jun-16 08:30N 34°37' E 134°53'713.2
2018-Jun-16 07:57N 34°41' E 134°46'0 0.0
2018-Jun-15 08:05N 34°41' E 134°46'212.0
2018-Jun-15 07:53N 34°39' E 134°48'410.9
2018-Jun-15 07:30N 34°38' E 134°53'710.7
2018-Jun-15 06:52N 34°37' E 135°01'3 7.7
2018-Jun-15 06:30N 34°36' E 135°04'510.1
2018-Jun-15 06:00N 34°34' E 135°10'611.8
2018-Jun-15 05:30N 34°31' E 135°16'611.1
2018-Jun-15 05:00N 34°27' E 135°21'0 0.2
2018-Jun-15 04:19N 34°27' E 135°21'0 0.0
2018-Jun-15 03:52N 34°27' E 135°21'0 0.0
2018-Jun-15 03:28N 34°27' E 135°21'0 0.0
2018-Jun-15 02:52N 34°27' E 135°21'0 0.0
2018-Jun-15 02:22N 34°27' E 135°21'0 0.0
2018-Jun-15 01:58N 34°27' E 135°21'0 0.0
2018-Jun-15 01:28N 34°27' E 135°21'0 0.0
2018-Jun-15 00:52N 34°27' E 135°21'0 0.0
2018-Jun-15 00:28N 34°27' E 135°21'0 0.0
2018-Jun-14 23:58N 34°27' E 135°21'0 0.0
2018-Jun-14 23:28N 34°27' E 135°21'0 0.0
2018-Jun-14 19:28N 34°27' E 135°21'0 0.0
2018-Jun-14 18:58N 34°27' E 135°21'0 0.0
2018-Jun-14 17:34N 34°27' E 135°21'0 0.0
2018-Jun-14 17:28N 34°27' E 135°21'0 0.0
2018-Jun-14 16:52N 34°27' E 135°21'0 0.0
2018-Jun-14 16:19N 34°27' E 135°21'0 0.0
2018-Jun-14 15:58N 34°27' E 135°21'0 0.0
2018-Jun-14 15:28N 34°27' E 135°21'0 0.0
2018-Jun-14 14:58N 34°27' E 135°21'0 0.0
2018-Jun-14 14:28N 34°27' E 135°21'0 0.0
2018-Jun-14 13:07N 34°27' E 135°21'0 0.0
2018-Jun-14 11:19N 34°27' E 135°21'0 0.0
2018-Jun-14 10:49N 34°27' E 135°21'0 0.0
2018-Jun-14 07:46N 34°27' E 135°21'0 0.0
2018-Jun-14 06:10N 34°27' E 135°21'0 0.0
2018-Jun-14 05:58N 34°27' E 135°21'0 0.0
2018-Jun-14 05:24N 34°27' E 135°21'1 1.8
2018-Jun-14 05:00N 34°28' E 135°21'2 3.4
2018-Jun-14 04:29N 34°29' E 135°19'2 4.8
2018-Jun-14 04:00N 34°29' E 135°16'5 9.2
2018-Jun-14 03:30N 34°27' E 135°11'5 9.2
2018-Jun-14 03:00N 34°23' E 135°08'4 8.9
2018-Jun-14 02:30N 34°19' E 135°04'3 7.0
2018-Jun-14 02:00N 34°16' E 135°03'4 8.8
2018-Jun-14 01:30N 34°12' E 135°02'5 9.1
2018-Jun-14 01:00N 34°07' E 135°02'5 9.6
2018-Jun-14 00:30N 34°02' E 135°01'5 9.6
2018-Jun-14 00:00N 33°58' E 135°01'5 9.1
2018-Jun-13 23:30N 33°53' E 135°01'  
2018-Jun-09 13:39N 33°50' E 135°03'212.1
2018-Jun-09 13:30N 33°52' E 135°02'611.9
2018-Jun-09 13:00N 33°56' E 134°57'611.6
2018-Jun-09 12:31N 34°00' E 134°53'711.8
2018-Jun-09 11:56N 34°06' E 134°47'712.2
2018-Jun-09 11:23N 34°11' E 134°42'912.4
2018-Jun-09 10:41N 34°17' E 134°34'212.1
2018-Jun-09 10:29N 34°18' E 134°32'511.6
2018-Jun-09 10:00N 34°20' E 134°26'  
Track history (hours):
 
Tides and Currents Weather Stations Pressure Air Temp Water Temp Dewpoint Dewpoint Depression Visibility Wind Speed Wind Dir Waves Ship Positions

Shintaiei Maru

Last reported at 2018-Jun-19 04:59 UTC. Time now 2018-Jun-21 11:58 UTC.
Position N 35°13' E 139°46'.

Length 75 m; draft 4.5 m.

Type: Cargo ship. MMSI: 431006906.

Date/timePositionNaut miles runAvg speedWind from/ knotsBaromVisibWave heightAir tempDewpointWater temp
2018-Jun-19 04:59N 35°13' E 139°46'612.6
2018-Jun-19 04:30N 35°19' E 139°43'611.6
2018-Jun-19 04:00N 35°25' E 139°43'612.7
2018-Jun-19 03:30N 35°28' E 139°49'9 0.3
2018-Jun-17 21:36N 35°35' E 139°57'0 0.1
2018-Jun-17 21:30N 35°35' E 139°57'3 0.7
2018-Jun-17 16:52N 35°32' E 139°55'411.8
2018-Jun-17 16:30N 35°29' E 139°52'611.4
2018-Jun-17 16:00N 35°25' E 139°47'611.3
2018-Jun-17 15:30N 35°19' E 139°44'510.4
2018-Jun-17 15:00N 35°15' E 139°47'811.5
2018-Jun-17 14:19N 35°07' E 139°45'245 9.9
2018-Jun-16 13:36N 33°51' E 135°03'111.1
2018-Jun-16 13:30N 33°51' E 135°03'610.3
2018-Jun-16 12:57N 33°57' E 134°60'510.3
2018-Jun-16 12:29N 34°01' E 134°60'510.7
2018-Jun-16 12:00N 34°07' E 134°59'611.2
2018-Jun-16 11:29N 34°12' E 134°59'5 9.9
2018-Jun-16 11:00N 34°17' E 134°58'5 9.9
2018-Jun-16 10:30N 34°22' E 134°59'510.5
2018-Jun-16 10:00N 34°27' E 135°01'510.4
2018-Jun-16 09:30N 34°32' E 135°02'5 9.5
2018-Jun-16 08:59N 34°37' E 135°01'612.3
2018-Jun-16 08:30N 34°37' E 134°53'713.2
2018-Jun-16 07:57N 34°41' E 134°46'0 0.0
2018-Jun-15 08:05N 34°41' E 134°46'212.0
2018-Jun-15 07:53N 34°39' E 134°48'410.9
2018-Jun-15 07:30N 34°38' E 134°53'710.7
2018-Jun-15 06:52N 34°37' E 135°01'3 7.7
2018-Jun-15 06:30N 34°36' E 135°04'510.1
2018-Jun-15 06:00N 34°34' E 135°10'611.8
2018-Jun-15 05:30N 34°31' E 135°16'611.1
2018-Jun-15 05:00N 34°27' E 135°21'0 0.2
2018-Jun-15 04:19N 34°27' E 135°21'0 0.0
2018-Jun-15 03:52N 34°27' E 135°21'0 0.0
2018-Jun-15 03:28N 34°27' E 135°21'0 0.0
2018-Jun-15 02:52N 34°27' E 135°21'0 0.0
2018-Jun-15 02:22N 34°27' E 135°21'0 0.0
2018-Jun-15 01:58N 34°27' E 135°21'0 0.0
2018-Jun-15 01:28N 34°27' E 135°21'0 0.0
2018-Jun-15 00:52N 34°27' E 135°21'0 0.0
2018-Jun-15 00:28N 34°27' E 135°21'0 0.0
2018-Jun-14 23:58N 34°27' E 135°21'0 0.0
2018-Jun-14 23:28N 34°27' E 135°21'0 0.0
2018-Jun-14 19:28N 34°27' E 135°21'0 0.0
2018-Jun-14 18:58N 34°27' E 135°21'0 0.0
2018-Jun-14 17:34N 34°27' E 135°21'0 0.0
2018-Jun-14 17:28N 34°27' E 135°21'0 0.0
2018-Jun-14 16:52N 34°27' E 135°21'0 0.0
2018-Jun-14 16:19N 34°27' E 135°21'0 0.0
2018-Jun-14 15:58N 34°27' E 135°21'0 0.0
2018-Jun-14 15:28N 34°27' E 135°21'0 0.0
2018-Jun-14 14:58N 34°27' E 135°21'0 0.0
2018-Jun-14 14:28N 34°27' E 135°21'0 0.0
2018-Jun-14 13:07N 34°27' E 135°21'0 0.0
2018-Jun-14 11:19N 34°27' E 135°21'0 0.0
2018-Jun-14 10:49N 34°27' E 135°21'0 0.0
2018-Jun-14 07:46N 34°27' E 135°21'0 0.0
2018-Jun-14 06:10N 34°27' E 135°21'0 0.0
2018-Jun-14 05:58N 34°27' E 135°21'0 0.0
2018-Jun-14 05:24N 34°27' E 135°21'1 1.8
2018-Jun-14 05:00N 34°28' E 135°21'2 3.4
2018-Jun-14 04:29N 34°29' E 135°19'2 4.8
2018-Jun-14 04:00N 34°29' E 135°16'5 9.2
2018-Jun-14 03:30N 34°27' E 135°11'5 9.2
2018-Jun-14 03:00N 34°23' E 135°08'4 8.9
2018-Jun-14 02:30N 34°19' E 135°04'3 7.0
2018-Jun-14 02:00N 34°16' E 135°03'4 8.8
2018-Jun-14 01:30N 34°12' E 135°02'5 9.1
2018-Jun-14 01:00N 34°07' E 135°02'5 9.6
2018-Jun-14 00:30N 34°02' E 135°01'5 9.6
2018-Jun-14 00:00N 33°58' E 135°01'5 9.1
2018-Jun-13 23:30N 33°53' E 135°01'  
2018-Jun-09 13:39N 33°50' E 135°03'212.1
2018-Jun-09 13:30N 33°52' E 135°02'611.9
2018-Jun-09 13:00N 33°56' E 134°57'611.6
2018-Jun-09 12:31N 34°00' E 134°53'711.8
2018-Jun-09 11:56N 34°06' E 134°47'712.2
2018-Jun-09 11:23N 34°11' E 134°42'912.4
2018-Jun-09 10:41N 34°17' E 134°34'212.1
2018-Jun-09 10:29N 34°18' E 134°32'511.6
2018-Jun-09 10:00N 34°20' E 134°26'  

Dump ship's entire track history